Time;durP1;ratioP1;P1;durP2;ratioP2;P2;SDS_P1;SDS_P2;PMS_P1;PMS_P2;Temp;Humidity;BMP_temperature;BMP_pressure;BME280_temperature;BME280_humidity;BME280_pressure;Samples;Min_cycle;Max_cycle;Signal;HPM_P1;HPM_P2
2022/10/18 00:01:53;;;;;;;4.57;3.80;;;;;;;;;;5066783;28;20037;-87
2022/10/18 00:04:19;;;;;;;2.95;2.75;;;;;;;;;;5065404;28;20028;-86
2022/10/18 00:06:45;;;;;;;3.05;2.85;;;;;;;;;;5066857;28;20029;-86
2022/10/18 00:09:12;;;;;;;5.05;3.95;;;15.70;99.90;;;;;;5065535;28;20386;-87
2022/10/18 00:11:39;;;;;;;5.43;3.25;;;;;;;;;;5066804;28;20084;-86
2022/10/18 00:14:05;;;;;;;2.55;2.35;;;;;;;;;;5066311;28;20021;-86
2022/10/18 00:16:31;;;;;;;2.83;2.33;;;;;;;;;;5066726;28;20033;-86
2022/10/18 00:18:57;;;;;;;4.43;4.03;;;;;;;;;;5048840;28;20063;-86
2022/10/18 00:21:24;;;;;;;7.07;2.50;;;15.70;99.90;;;;;;5065328;28;20039;-87
2022/10/18 00:23:51;;;;;;;2.88;2.58;;;15.70;99.90;;;;;;5066184;28;20031;-87
2022/10/18 00:26:28;;;;;;;6.00;3.35;;;15.70;99.90;;;;;;5048395;28;20025;-87
2022/10/18 00:29:00;;;;;;;3.17;2.78;;;15.70;99.90;;;;;;5065258;28;20053;-86
2022/10/18 00:31:34;;;;;;;3.70;3.30;;;15.70;99.90;;;;;;5066577;28;20033;-87
2022/10/18 00:34:15;;;;;;;3.25;2.80;;;15.70;99.90;;;;;;5066221;28;20033;-86
2022/10/18 00:36:41;;;;;;;2.60;2.40;;;15.70;99.90;;;;;;5046384;28;20089;-87
2022/10/18 00:39:11;;;;;;;8.70;2.60;;;15.70;99.90;;;;;;5045064;28;20067;-87
2022/10/18 00:41:37;;;;;;;3.47;3.17;;;15.70;99.90;;;;;;5045147;28;20033;-87
2022/10/18 00:44:26;;;;;;;2.45;2.25;;;15.70;99.90;;;;;;5048223;28;20071;-86
2022/10/18 00:46:56;;;;;;;3.05;2.85;;;15.70;99.90;;;;;;5064564;28;20031;-87
2022/10/18 00:49:36;;;;;;;3.70;2.65;;;15.70;99.90;;;;;;5064966;28;20060;-86
2022/10/18 00:52:08;;;;;;;3.28;2.97;;;15.70;99.90;;;;;;5064957;28;20029;-86
2022/10/18 00:54:37;;;;;;;2.33;2.13;;;15.60;99.90;;;;;;5064799;28;20025;-86
2022/10/18 00:57:05;;;;;;;3.08;2.78;;;15.70;99.90;;;;;;5064465;28;20426;-86
2022/10/18 00:59:31;;;;;;;2.50;2.28;;;;;;;;;;5046095;28;20044;-86
2022/10/18 01:01:57;;;;;;;2.83;2.63;;;15.70;99.90;;;;;;5051380;28;20033;-86
2022/10/18 01:04:23;;;;;;;3.22;2.92;;;15.70;99.90;;;;;;5064527;28;20033;-87
2022/10/18 01:06:58;;;;;;;3.15;2.35;;;15.70;99.90;;;;;;5064930;28;20078;-87
2022/10/18 01:09:46;;;;;;;2.67;2.47;;;15.70;99.90;;;;;;5064397;28;20029;-87
2022/10/18 01:12:31;;;;;;;4.47;3.00;;;15.60;99.90;;;;;;5065985;28;20047;-86
2022/10/18 01:15:15;;;;;;;3.42;3.15;;;15.60;99.90;;;;;;5066167;28;20056;-86
2022/10/18 01:17:55;;;;;;;4.85;2.88;;;15.60;99.90;;;;;;5065750;28;20021;-86
2022/10/18 01:20:37;;;;;;;3.22;2.92;;;15.60;99.90;;;;;;5065957;28;20040;-87
2022/10/18 01:23:47;;;;;;;4.20;2.97;;;15.60;99.90;;;;;;5064653;28;20578;-85
2022/10/18 01:26:29;;;;;;;6.30;4.10;;;15.60;99.90;;;;;;5054059;28;20037;-86
2022/10/18 01:29:29;;;;;;;4.40;3.38;;;15.60;99.90;;;;;;5064350;28;20037;-87
2022/10/18 01:32:02;;;;;;;2.47;2.28;;;15.60;99.90;;;;;;5044560;28;20037;-86
2022/10/18 01:34:33;;;;;;;3.65;3.35;;;15.60;99.90;;;;;;5053439;28;20052;-87
2022/10/18 01:37:02;;;;;;;3.97;3.58;;;15.60;99.90;;;;;;5065851;28;20103;-87
2022/10/18 01:39:33;;;;;;;2.90;2.70;;;15.60;99.90;;;;;;5047814;28;20021;-86
2022/10/18 01:42:04;;;;;;;4.18;3.55;;;15.60;99.90;;;;;;5064493;28;20398;-86
2022/10/18 01:44:31;;;;;;;5.07;2.95;;;15.60;99.90;;;;;;5063977;28;20033;-86
2022/10/18 01:46:58;;;;;;;3.20;2.85;;;15.60;99.90;;;;;;5064466;28;20052;-87
2022/10/18 01:49:25;;;;;;;4.85;3.05;;;15.60;99.90;;;;;;5064200;28;20036;-87
2022/10/18 01:51:51;;;;;;;6.60;2.95;;;;;;;;;;5064311;28;20071;-87
2022/10/18 01:54:23;;;;;;;4.00;2.60;;;15.60;99.90;;;;;;5064123;28;20048;-86
2022/10/18 01:57:01;;;;;;;4.75;3.63;;;15.60;99.90;;;;;;5064318;28;20032;-87
2022/10/18 01:59:50;;;;;;;3.40;3.00;;;15.60;99.90;;;;;;5065336;28;20025;-87
2022/10/18 02:02:54;;;;;;;6.20;2.83;;;15.60;99.90;;;;;;5064180;28;20048;-87
2022/10/18 02:05:40;;;;;;;5.90;3.30;;;15.60;99.90;;;;;;5065014;28;20088;-86
2022/10/18 02:08:28;;;;;;;3.33;3.03;;;15.60;99.90;;;;;;5065356;28;20083;-86
2022/10/18 02:11:09;;;;;;;2.90;2.65;;;15.60;99.90;;;;;;5064223;28;20033;-87
2022/10/18 02:13:42;;;;;;;3.53;3.22;;;15.60;99.90;;;;;;5067694;28;20488;-86
2022/10/18 02:16:37;;;;;;;4.30;3.10;;;15.60;99.90;;;;;;5068888;28;20029;-86
2022/10/18 02:19:31;;;;;;;3.83;3.53;;;15.60;99.90;;;;;;5069253;28;20029;-87
2022/10/18 02:21:59;;;;;;;4.65;3.20;;;;;;;;;;5068918;28;20025;-86
2022/10/18 02:24:34;;;;;;;4.18;3.13;;;15.60;99.90;;;;;;5050909;28;20115;-87
2022/10/18 02:27:00;;;;;;;3.63;3.10;;;;;;;;;;5068625;28;20124;-87
2022/10/18 02:29:27;;;;;;;3.50;3.28;;;;;;;;;;5067495;28;20469;-86
2022/10/18 02:32:25;;;;;;;4.15;3.75;;;15.60;99.90;;;;;;5068613;28;20036;-87
2022/10/18 02:35:07;;;;;;;4.03;3.38;;;15.50;99.90;;;;;;5068406;28;20037;-86
2022/10/18 02:37:37;;;;;;;3.75;3.40;;;15.50;99.90;;;;;;5067556;28;20118;-87
2022/10/18 02:40:06;;;;;;;5.63;3.65;;;15.50;99.90;;;;;;5068698;28;20025;-86
2022/10/18 02:42:34;;;;;;;4.32;3.92;;;15.50;99.90;;;;;;5067256;28;20052;-86
2022/10/18 02:45:00;;;;;;;5.57;4.53;;;15.50;99.90;;;;;;5068025;28;20021;-87
2022/10/18 02:47:27;;;;;;;6.60;3.35;;;;;;;;;;5067478;28;20036;-87
2022/10/18 02:49:53;;;;;;;3.90;3.60;;;;;;;;;;5049974;28;20021;-87
2022/10/18 02:52:19;;;;;;;4.43;4.05;;;;;;;;;;5066897;28;20029;-86
2022/10/18 02:54:45;;;;;;;6.38;4.40;;;;;;;;;;5067125;28;20032;-86
2022/10/18 02:57:11;;;;;;;4.20;3.83;;;;;;;;;;5066945;28;20032;-87
2022/10/18 02:59:38;;;;;;;3.63;3.17;;;;;;;;;;5066849;28;20033;-86
2022/10/18 03:02:04;;;;;;;4.60;4.03;;;;;;;;;;5066698;28;20038;-86
2022/10/18 03:04:30;;;;;;;4.88;4.40;;;;;;;;;;5050066;28;20021;-87
2022/10/18 03:06:56;;;;;;;5.30;4.65;;;;;;;;;;5067894;28;20057;-87
2022/10/18 03:09:22;;;;;;;3.72;3.42;;;15.50;99.90;;;;;;5068158;28;20029;-87
2022/10/18 03:11:48;;;;;;;7.05;4.72;;;15.50;99.90;;;;;;5083099;28;20158;-87
2022/10/18 03:14:14;;;;;;;4.32;3.92;;;;;;;;;;5050019;28;20025;-86
2022/10/18 03:16:40;;;;;;;4.90;4.28;;;;;;;;;;5068032;28;20025;-87
2022/10/18 03:19:07;;;;;;;5.70;5.03;;;15.50;99.90;;;;;;5067736;28;20402;-87
2022/10/18 03:21:33;;;;;;;5.55;5.03;;;;;;;;;;5066390;28;20025;-87
2022/10/18 03:23:59;;;;;;;5.07;4.57;;;;;;;;;;5065524;28;20028;-87
2022/10/18 03:26:25;;;;;;;5.13;4.72;;;;;;;;;;5066194;28;20489;-86
2022/10/18 03:28:52;;;;;;;3.85;3.55;;;15.50;99.90;;;;;;5067869;28;20032;-86
2022/10/18 03:31:18;;;;;;;5.38;4.95;;;;;;;;;;5067462;28;20044;-86
2022/10/18 03:33:44;;;;;;;5.00;4.50;;;;;;;;;;5067441;28;20033;-87
2022/10/18 03:36:11;;;;;;;6.10;5.60;;;;;;;;;;5067472;28;20021;-86
2022/10/18 03:38:37;;;;;;;4.63;4.22;;;;;;;;;;5066170;28;20037;-86
2022/10/18 03:41:03;;;;;;;7.10;4.18;;;15.50;99.90;;;;;;5065976;28;20021;-86
2022/10/18 03:43:29;;;;;;;5.90;5.10;;;15.50;99.90;;;;;;5067292;28;20043;-86
2022/10/18 03:45:55;;;;;;;5.72;5.22;;;;;;;;;;5067347;28;20482;-86
2022/10/18 03:48:21;;;;;;;5.65;4.53;;;;;;;;;;5065758;28;20029;-86
2022/10/18 03:50:47;;;;;;;5.15;4.72;;;;;;;;;;5065996;28;20099;-86
2022/10/18 03:53:13;;;;;;;7.20;5.18;;;;;;;;;;5066912;28;20522;-86
2022/10/18 03:55:39;;;;;;;6.32;4.47;;;15.50;99.90;;;;;;5065793;28;20017;-87
2022/10/18 03:58:06;;;;;;;7.00;5.95;;;15.50;99.90;;;;;;5067157;28;20032;-86
2022/10/18 04:00:32;;;;;;;6.55;5.95;;;;;;;;;;5065646;28;20036;-86
2022/10/18 04:02:58;;;;;;;6.75;6.07;;;;;;;;;;5065464;28;20035;-87
2022/10/18 04:05:26;;;;;;;5.40;4.93;;;;;;;;;;5065826;28;20025;-87
2022/10/18 04:07:53;;;;;;;6.32;5.70;;;;;;;;;;5066541;28;20033;-86
2022/10/18 04:10:20;;;;;;;8.20;6.78;;;;;;;;;;5065224;28;20029;-86
2022/10/18 04:12:46;;;;;;;6.07;5.57;;;;;;;;;;5065749;28;20041;-86
2022/10/18 04:15:12;;;;;;;8.25;7.32;;;;;;;;;;5066655;28;20033;-87
2022/10/18 04:17:40;;;;;;;13.02;7.60;;;15.50;99.90;;;;;;5066485;28;20025;-86
2022/10/18 04:20:06;;;;;;;8.05;7.25;;;15.50;99.90;;;;;;5066852;28;20433;-86
2022/10/18 04:22:32;;;;;;;7.32;5.47;;;;;;;;;;5066492;28;20029;-86
2022/10/18 04:24:58;;;;;;;8.07;7.38;;;15.50;99.90;;;;;;5066572;28;20021;-86
2022/10/18 04:27:24;;;;;;;7.70;6.85;;;15.50;99.90;;;;;;5066216;28;20064;-86
2022/10/18 04:29:49;;;;;;;7.53;6.88;;;15.50;99.90;;;;;;5065185;28;20029;-86
2022/10/18 04:32:16;;;;;;;7.68;6.95;;;;;;;;;;5066515;28;20085;-86
2022/10/18 04:34:41;;;;;;;8.60;6.03;;;15.50;99.90;;;;;;5066530;28;20033;-86
2022/10/18 04:37:07;;;;;;;8.68;7.20;;;15.50;99.90;;;;;;5048060;28;20497;-87
2022/10/18 04:39:33;;;;;;;7.40;6.63;;;15.50;99.90;;;;;;5048261;28;20080;-86
2022/10/18 04:41:59;;;;;;;8.30;7.57;;;15.40;99.90;;;;;;5065210;28;20056;-87
2022/10/18 04:44:25;;;;;;;7.82;7.07;;;;;;;;;;5066310;28;20033;-86
2022/10/18 04:46:51;;;;;;;9.27;7.15;;;;;;;;;;5064397;28;20027;-86
2022/10/18 04:49:18;;;;;;;8.75;7.85;;;;;;;;;;5065052;28;20079;-87
2022/10/18 04:51:43;;;;;;;9.25;8.45;;;15.40;99.90;;;;;;5065879;28;20079;-86
2022/10/18 04:54:10;;;;;;;7.75;6.85;;;;;;;;;;5063198;28;20025;-86
2022/10/18 04:56:35;;;;;;;7.35;6.70;;;15.40;99.90;;;;;;5059577;28;20467;-86
2022/10/18 04:59:01;;;;;;;8.52;7.30;;;15.40;99.90;;;;;;5063846;28;20044;-86
2022/10/18 05:01:28;;;;;;;6.80;6.10;;;;;;;;;;5048306;28;20025;-87
2022/10/18 05:03:54;;;;;;;9.52;8.57;;;15.40;99.90;;;;;;5064214;28;20061;-86
2022/10/18 05:06:21;;;;;;;7.65;6.70;;;15.40;99.90;;;;;;5064262;28;20032;-86
2022/10/18 05:08:48;;;;;;;8.63;7.68;;;;;;;;;;5062263;28;20039;-87
2022/10/18 05:11:14;;;;;;;7.75;6.95;;;;;;;;;;5046804;28;20037;-86
2022/10/18 05:13:40;;;;;;;8.00;7.30;;;15.40;99.90;;;;;;5055634;28;20038;-86
2022/10/18 05:16:06;;;;;;;8.38;7.63;;;15.40;99.90;;;;;;5064247;28;20047;-87
2022/10/18 05:18:32;;;;;;;11.15;8.38;;;;;;;;;;5064691;28;20085;-87
2022/10/18 05:20:58;;;;;;;8.20;7.07;;;15.40;99.90;;;;;;5065464;28;20025;-87
2022/10/18 05:23:24;;;;;;;9.38;8.55;;;;;;;;;;5047530;28;20025;-87
2022/10/18 05:25:50;;;;;;;12.38;7.43;;;15.40;99.90;;;;;;5063163;28;20068;-87
2022/10/18 05:28:16;;;;;;;10.30;6.90;;;;;;;;;;5064822;28;20063;-87
2022/10/18 05:30:42;;;;;;;8.88;6.90;;;15.40;99.90;;;;;;5048848;28;20055;-87
2022/10/18 05:33:09;;;;;;;8.85;8.00;;;;;;;;;;5047715;28;20119;-87
2022/10/18 05:35:35;;;;;;;9.93;8.50;;;;;;;;;;5065527;28;20051;-87
2022/10/18 05:38:03;;;;;;;12.65;7.43;;;15.40;99.90;;;;;;5064170;28;20080;-87
2022/10/18 05:40:29;;;;;;;8.15;7.45;;;;;;;;;;5064062;28;20454;-87
2022/10/18 05:42:55;;;;;;;8.32;7.57;;;15.30;99.90;;;;;;5064141;28;20037;-87
2022/10/18 05:45:21;;;;;;;8.93;8.13;;;15.40;99.90;;;;;;5064439;28;20043;-86
2022/10/18 05:47:47;;;;;;;9.20;8.32;;;15.30;99.90;;;;;;5048598;28;20059;-86
2022/10/18 05:50:13;;;;;;;9.07;8.13;;;;;;;;;;5067923;28;20363;-86
2022/10/18 05:52:39;;;;;;;9.38;8.32;;;;;;;;;;5068135;28;20096;-86
2022/10/18 05:55:05;;;;;;;8.45;7.65;;;15.30;99.90;;;;;;5068790;28;20028;-87
2022/10/18 05:57:32;;;;;;;8.13;7.53;;;15.30;99.90;;;;;;5069110;28;20037;-86
2022/10/18 05:59:58;;;;;;;11.57;9.15;;;;;;;;;;5067726;28;20021;-87
2022/10/18 06:02:24;;;;;;;8.80;7.90;;;15.30;99.90;;;;;;5067623;28;20028;-86
2022/10/18 06:04:49;;;;;;;9.38;8.48;;;15.30;99.90;;;;;;5067430;28;20025;-85
2022/10/18 06:07:16;;;;;;;9.10;8.15;;;;;;;;;;5068951;28;20017;-86
2022/10/18 06:09:42;;;;;;;10.32;7.70;;;;;;;;;;5051087;28;20041;-86
2022/10/18 06:12:08;;;;;;;9.75;8.43;;;15.30;99.90;;;;;;5067251;28;20024;-86
2022/10/18 06:14:36;;;;;;;9.65;8.13;;;15.30;99.90;;;;;;5067791;28;20021;-86
2022/10/18 06:17:02;;;;;;;10.40;9.38;;;;;;;;;;5048872;28;20130;-86
2022/10/18 06:19:28;;;;;;;11.02;8.90;;;;;;;;;;5067424;28;20029;-86
2022/10/18 06:21:54;;;;;;;10.00;8.35;;;;;;;;;;5067410;28;20037;-85
2022/10/18 06:24:20;;;;;;;13.35;8.90;;;15.30;99.90;;;;;;5067316;28;20085;-86
2022/10/18 06:26:47;;;;;;;9.80;9.00;;;;;;;;;;5067225;28;20045;-86
2022/10/18 06:29:12;;;;;;;10.32;9.30;;;15.30;99.90;;;;;;5067384;28;20084;-86
2022/10/18 06:31:38;;;;;;;11.85;10.13;;;15.20;99.90;;;;;;5067280;28;20077;-86
2022/10/18 06:34:04;;;;;;;11.50;9.20;;;15.30;99.90;;;;;;5068293;28;20055;-86
2022/10/18 06:36:30;;;;;;;10.15;8.90;;;15.20;99.90;;;;;;5067781;28;20021;-86
2022/10/18 06:38:58;;;;;;;9.63;8.65;;;15.20;99.90;;;;;;5064362;28;20036;-85
2022/10/18 06:41:25;;;;;;;10.50;9.50;;;15.20;99.90;;;;;;5067261;28;20132;-86
2022/10/18 06:43:52;;;;;;;9.32;8.38;;;15.20;99.90;;;;;;5063619;28;20107;-85
2022/10/18 06:46:18;;;;;;;10.05;9.02;;;15.20;99.90;;;;;;5066694;28;20063;-86
2022/10/18 06:48:46;;;;;;;12.57;9.45;;;15.20;99.90;;;;;;5066742;28;20033;-86
2022/10/18 06:51:14;;;;;;;9.40;8.48;;;;;;;;;;5049869;28;20017;-86
2022/10/18 06:53:40;;;;;;;9.80;8.48;;;;;;;;;;5083350;28;20110;-86
2022/10/18 06:56:12;;;;;;;10.05;9.18;;;15.20;99.90;;;;;;5082482;28;20025;-86
2022/10/18 06:58:39;;;;;;;11.65;10.48;;;15.20;99.90;;;;;;5063083;28;20423;-85
2022/10/18 07:01:07;;;;;;;10.95;9.32;;;15.20;99.90;;;;;;5060412;28;20028;-86
2022/10/18 07:03:34;;;;;;;9.40;8.57;;;15.20;99.90;;;;;;5065233;28;20033;-86
2022/10/18 07:06:03;;;;;;;11.98;10.02;;;15.30;99.90;;;;;;5063175;28;20127;-85
2022/10/18 07:08:29;;;;;;;11.07;9.98;;;15.20;99.90;;;;;;5046786;28;20604;-86
2022/10/18 07:10:55;;;;;;;11.65;8.98;;;;;;;;;;5024646;28;20024;-86
2022/10/18 07:13:21;;;;;;;11.50;10.20;;;15.30;99.90;;;;;;5063723;28;20018;-85
2022/10/18 07:15:48;;;;;;;11.93;10.70;;;;;;;;;;5046814;28;20528;-86
2022/10/18 07:18:14;;;;;;;11.05;9.95;;;15.30;99.90;;;;;;5062895;28;20054;-86
2022/10/18 07:20:40;;;;;;;11.65;10.55;;;15.30;99.90;;;;;;5056705;28;20059;-85
2022/10/18 07:23:08;;;;;;;14.63;10.68;;;15.30;99.90;;;;;;5059466;28;20045;-86
2022/10/18 07:25:34;;;;;;;14.80;10.15;;;15.30;99.90;;;;;;5060495;28;20075;-86
2022/10/18 07:28:01;;;;;;;14.63;11.55;;;;;;;;;;5060836;28;20048;-86
2022/10/18 07:30:27;;;;;;;12.30;11.10;;;15.30;99.90;;;;;;5045348;28;20413;-86
2022/10/18 07:32:53;;;;;;;13.65;11.73;;;15.30;99.90;;;;;;5032150;28;20097;-85
2022/10/18 07:35:19;;;;;;;19.50;12.30;;;15.30;99.90;;;;;;5051828;28;20052;-85
2022/10/18 07:37:44;;;;;;;17.17;13.98;;;15.30;99.90;;;;;;5058409;28;20021;-86
2022/10/18 07:40:11;;;;;;;14.40;12.43;;;15.30;99.90;;;;;;5065817;28;20025;-86
2022/10/18 07:42:37;;;;;;;16.02;13.23;;;15.30;99.90;;;;;;5065986;28;20037;-86
2022/10/18 07:45:03;;;;;;;13.93;12.60;;;15.30;99.90;;;;;;5077329;28;20092;-85
2022/10/18 07:47:29;;;;;;;14.88;12.45;;;;;;;;;;5049130;28;20079;-86
2022/10/18 07:49:55;;;;;;;13.52;12.15;;;;;;;;;;5067840;28;20042;-86
2022/10/18 07:52:21;;;;;;;19.38;13.82;;;;;;;;;;5059771;28;20041;-86
2022/10/18 07:55:00;;;;;;;20.48;14.57;;;15.30;99.90;;;;;;5038540;28;20036;-86
2022/10/18 07:57:27;;;;;;;16.03;14.20;;;;;;;;;;5082135;28;20036;-85
2022/10/18 07:59:55;;;;;;;17.83;14.45;;;;;;;;;;5071792;28;20024;-86
2022/10/18 08:02:24;;;;;;;27.25;17.30;;;15.40;99.90;;;;;;5081973;28;20039;-86
2022/10/18 08:04:50;;;;;;;14.32;13.13;;;15.40;99.90;;;;;;5066490;28;20123;-85
2022/10/18 08:07:16;;;;;;;13.18;11.32;;;15.40;99.90;;;;;;5066851;28;20028;-86
2022/10/18 08:09:43;;;;;;;14.25;12.75;;;;;;;;;;5072613;28;20032;-86
2022/10/18 08:12:09;;;;;;;15.32;13.52;;;;;;;;;;5066853;28;20036;-86
2022/10/18 08:14:35;;;;;;;15.50;13.93;;;;;;;;;;5081904;28;20363;-86
2022/10/18 08:17:01;;;;;;;14.55;13.05;;;;;;;;;;5066172;28;20025;-86
2022/10/18 08:19:28;;;;;;;14.32;13.10;;;;;;;;;;5074384;28;20025;-87
2022/10/18 08:21:53;;;;;;;14.52;13.02;;;15.50;99.90;;;;;;5065161;28;20032;-86
2022/10/18 08:24:20;;;;;;;14.20;12.88;;;;;;;;;;5066324;28;20028;-86
2022/10/18 08:26:47;;;;;;;14.60;13.13;;;15.50;99.90;;;;;;5046786;28;20109;-86
2022/10/18 08:29:13;;;;;;;16.05;14.40;;;15.50;99.90;;;;;;5073360;28;20056;-86
2022/10/18 08:31:39;;;;;;;16.75;12.95;;;15.50;99.90;;;;;;5066164;28;20029;-86
2022/10/18 08:34:05;;;;;;;14.50;13.00;;;15.50;99.90;;;;;;5066108;28;20020;-85
2022/10/18 08:36:31;;;;;;;16.55;14.73;;;;;;;;;;5066005;28;20071;-86
2022/10/18 08:38:57;;;;;;;16.10;14.35;;;15.50;99.90;;;;;;5075560;28;20029;-86
2022/10/18 08:41:25;;;;;;;19.05;17.05;;;15.50;99.90;;;;;;5064836;28;20033;-85
2022/10/18 08:44:06;;;;;;;17.23;15.38;;;15.50;99.90;;;;;;5065887;28;20036;-86
2022/10/18 08:46:34;;;;;;;16.92;15.20;;;15.50;99.90;;;;;;5066038;28;20092;-86
2022/10/18 08:49:03;;;;;;;18.92;16.98;;;15.50;99.90;;;;;;5075876;28;20393;-86
2022/10/18 08:51:44;;;;;;;20.85;16.83;;;15.50;99.90;;;;;;5064879;28;20394;-86
2022/10/18 08:54:19;;;;;;;18.25;16.52;;;15.50;99.90;;;;;;5064535;28;20025;-85
2022/10/18 08:56:57;;;;;;;19.50;15.98;;;15.50;99.90;;;;;;5065063;28;20032;-86
2022/10/18 08:59:23;;;;;;;21.15;17.80;;;15.50;99.90;;;;;;5085662;28;20025;-85
2022/10/18 09:02:04;;;;;;;22.77;18.15;;;15.50;99.90;;;;;;5086220;28;20463;-86
2022/10/18 09:04:30;;;;;;;22.73;17.63;;;;;;;;;;5085978;28;20033;-84
2022/10/18 09:07:18;;;;;;;28.88;21.10;;;15.50;99.90;;;;;;5055510;28;20039;-85
2022/10/18 09:10:05;;;;;;;28.38;20.00;;;15.60;99.90;;;;;;5065607;28;20051;-85
2022/10/18 09:12:48;;;;;;;24.88;19.48;;;15.60;99.90;;;;;;5063669;28;20029;-85
2022/10/18 09:15:38;;;;;;;24.90;17.60;;;15.60;99.90;;;;;;5064301;28;20025;-85
2022/10/18 09:18:16;;;;;;;25.02;20.05;;;15.70;99.90;;;;;;5056136;28;20031;-85
2022/10/18 09:20:55;;;;;;;31.63;20.27;;;15.70;99.90;;;;;;5064282;28;20037;-86
2022/10/18 09:23:36;;;;;;;23.00;19.85;;;15.70;99.90;;;;;;5049817;28;20122;-85
2022/10/18 09:26:12;;;;;;;22.65;19.33;;;15.80;99.90;;;;;;5069132;28;20033;-86
2022/10/18 09:28:50;;;;;;;25.10;19.73;;;15.80;99.90;;;;;;5069688;28;20509;-85
2022/10/18 09:31:21;;;;;;;27.00;20.88;;;15.90;99.90;;;;;;5068643;28;20021;-85
2022/10/18 09:33:56;;;;;;;27.58;21.08;;;15.90;99.90;;;;;;5070015;28;20025;-86
2022/10/18 09:36:25;;;;;;;30.25;21.65;;;15.80;99.90;;;;;;5077244;28;20028;-86
2022/10/18 09:38:58;;;;;;;26.10;20.73;;;15.80;99.90;;;;;;5071593;28;20020;-86
2022/10/18 09:41:39;;;;;;;27.70;21.73;;;15.80;99.90;;;;;;5089821;28;20029;-86
2022/10/18 09:44:14;;;;;;;23.40;20.85;;;15.80;99.90;;;;;;5089673;28;20029;-85
2022/10/18 09:46:46;;;;;;;28.15;21.98;;;15.90;99.90;;;;;;5077357;28;20036;-86
2022/10/18 09:49:27;;;;;;;26.85;21.95;;;16.00;99.90;;;;;;5084214;28;20032;-85
2022/10/18 09:51:53;;;;;;;23.95;21.45;;;16.00;99.90;;;;;;5089530;28;20033;-86
2022/10/18 09:54:32;;;;;;;25.27;22.60;;;16.00;99.90;;;;;;5088215;28;20026;-86
2022/10/18 09:57:15;;;;;;;28.50;20.92;;;16.10;99.90;;;;;;5069856;28;20053;-86
2022/10/18 09:59:44;;;;;;;27.60;21.67;;;16.20;99.90;;;;;;5069370;28;20044;-86
2022/10/18 10:02:20;;;;;;;25.77;22.08;;;16.20;99.90;;;;;;5068231;28;20064;-86
2022/10/18 10:04:47;;;;;;;23.35;20.92;;;;;;;;;;5069196;28;20040;-86
2022/10/18 10:07:20;;;;;;;27.52;21.95;;;16.40;99.90;;;;;;5084189;28;20044;-86
2022/10/18 10:10:25;;;;;;;27.48;22.33;;;16.40;99.90;;;;;;5067426;28;20051;-86
2022/10/18 10:13:21;;;;;;;26.80;20.17;;;16.50;99.90;;;;;;5062036;28;20029;-86
2022/10/18 10:15:55;;;;;;;23.08;20.60;;;16.60;99.90;;;;;;5068827;28;20033;-86
2022/10/18 10:18:30;;;;;;;28.40;21.48;;;16.70;99.90;;;;;;5069192;28;20272;-86
2022/10/18 10:21:04;;;;;;;24.67;20.77;;;16.80;99.90;;;;;;5066561;28;20505;-86
2022/10/18 10:23:43;;;;;;;33.50;21.15;;;16.90;99.90;;;;;;5068674;28;20072;-86
2022/10/18 10:26:24;;;;;;;18.92;16.98;;;16.90;99.90;;;;;;5069526;28;20021;-86
2022/10/18 10:28:50;;;;;;;26.13;18.65;;;;;;;;;;5067304;28;20033;-86
2022/10/18 10:31:30;;;;;;;29.95;19.48;;;17.20;99.90;;;;;;5084187;28;20033;-86
2022/10/18 10:34:19;;;;;;;23.95;20.35;;;17.20;99.90;;;;;;5066899;28;20402;-86
2022/10/18 10:36:48;;;;;;;30.35;17.65;;;17.30;99.90;;;;;;5077927;28;20036;-86
2022/10/18 10:39:19;;;;;;;20.33;17.85;;;17.40;99.90;;;;;;5087353;28;20020;-86
2022/10/18 10:41:52;;;;;;;16.63;14.88;;;17.30;99.90;;;;;;5088743;28;20035;-86
2022/10/18 10:44:29;;;;;;;18.42;16.08;;;17.40;99.90;;;;;;5077391;28;20031;-86
2022/10/18 10:46:56;;;;;;;24.70;16.25;;;17.50;99.90;;;;;;5035688;28;20036;-86
2022/10/18 10:49:24;;;;;;;17.58;14.73;;;17.50;99.90;;;;;;5068410;28;20501;-86
2022/10/18 10:51:59;;;;;;;21.27;15.65;;;17.50;99.90;;;;;;5068282;28;20052;-86
2022/10/18 10:54:27;;;;;;;17.08;14.95;;;17.60;99.90;;;;;;5083508;28;20082;-86
2022/10/18 10:56:59;;;;;;;15.60;12.65;;;17.60;99.90;;;;;;5050584;28;20033;-86
2022/10/18 10:59:29;;;;;;;16.27;12.65;;;17.50;99.90;;;;;;5068264;28;20036;-86
2022/10/18 11:02:17;;;;;;;14.90;13.38;;;17.50;99.90;;;;;;5083564;28;20100;-86
2022/10/18 11:04:49;;;;;;;21.80;15.07;;;17.50;99.90;;;;;;5075695;28;20024;-86
2022/10/18 11:07:30;;;;;;;15.50;11.70;;;17.50;99.90;;;;;;5075236;28;20062;-86
2022/10/18 11:10:04;;;;;;;17.17;14.48;;;17.30;99.90;;;;;;5088293;28;20050;-86
2022/10/18 11:13:01;;;;;;;15.00;13.32;;;17.60;99.90;;;;;;5086971;28;20389;-86
2022/10/18 11:15:56;;;;;;;13.73;12.25;;;17.60;99.90;;;;;;5068725;28;20504;-86
2022/10/18 11:18:28;;;;;;;18.77;13.27;;;17.60;99.90;;;;;;5067883;28;20029;-86
2022/10/18 11:21:06;;;;;;;15.77;10.55;;;17.60;99.90;;;;;;5066666;28;20028;-87
2022/10/18 11:23:35;;;;;;;17.58;11.18;;;17.70;99.90;;;;;;5069460;28;20088;-87
2022/10/18 11:26:10;;;;;;;17.42;9.10;;;17.70;99.90;;;;;;5087737;28;20056;-86
2022/10/18 11:28:37;;;;;;;15.85;12.63;;;;;;;;;;5087596;28;20079;-87
2022/10/18 11:31:18;;;;;;;10.90;9.23;;;18.10;99.90;;;;;;5087753;28;20075;-86
2022/10/18 11:33:49;;;;;;;20.77;11.32;;;18.10;99.90;;;;;;5085243;28;20032;-86
2022/10/18 11:36:45;;;;;;;25.25;11.63;;;18.20;99.90;;;;;;5067396;28;20482;-86
2022/10/18 11:39:25;;;;;;;14.95;11.05;;;18.20;99.90;;;;;;5045200;28;20060;-86
2022/10/18 11:42:01;;;;;;;15.77;11.30;;;18.20;99.90;;;;;;5066599;28;20036;-86
2022/10/18 11:44:42;;;;;;;12.63;8.90;;;18.10;99.90;;;;;;5082230;28;20025;-86
2022/10/18 11:47:08;;;;;;;10.70;9.13;;;;;;;;;;5066934;28;20063;-87
2022/10/18 11:49:45;;;;;;;14.75;10.35;;;18.00;99.90;;;;;;5049166;28;20100;-87
2022/10/18 11:52:23;;;;;;;14.70;11.10;;;18.00;99.90;;;;;;5066040;28;20378;-86
2022/10/18 11:55:23;;;;;;;14.88;10.48;;;17.90;99.90;;;;;;5078079;28;20024;-86
2022/10/18 11:58:02;;;;;;;22.50;10.48;;;17.90;99.90;;;;;;5087073;28;20052;-86
2022/10/18 12:00:43;;;;;;;12.33;8.23;;;17.80;99.90;;;;;;5087066;28;20025;-86
2022/10/18 12:03:40;;;;;;;19.73;8.48;;;17.80;99.90;;;;;;5085868;28;20033;-86
2022/10/18 12:06:14;;;;;;;23.63;9.57;;;17.70;99.90;;;;;;5045813;28;20124;-86
2022/10/18 12:08:47;;;;;;;13.57;7.20;;;17.80;99.90;;;;;;5045840;28;20036;-86
2022/10/18 12:11:37;;;;;;;16.15;9.00;;;18.10;99.90;;;;;;5045708;28;20038;-86
2022/10/18 12:14:36;;;;;;;14.40;8.77;;;18.20;99.90;;;;;;5054456;28;20020;-86
2022/10/18 12:17:07;;;;;;;17.35;9.18;;;18.50;99.90;;;;;;5072278;28;20127;-86
2022/10/18 12:19:34;;;;;;;13.95;7.43;;;18.50;99.90;;;;;;5085498;28;20025;-86
2022/10/18 12:22:35;;;;;;;10.07;8.00;;;18.60;99.90;;;;;;5068823;28;20092;-86
2022/10/18 12:25:01;;;;;;;10.77;6.97;;;18.80;99.90;;;;;;5085069;28;20055;-86
2022/10/18 12:27:39;;;;;;;9.73;6.78;;;18.80;99.90;;;;;;5075819;28;20072;-85
2022/10/18 12:30:23;;;;;;;11.73;8.25;;;18.90;99.90;;;;;;5083278;28;20040;-86
2022/10/18 12:32:54;;;;;;;13.00;7.82;;;19.00;99.90;;;;;;5086281;28;20032;-87
2022/10/18 12:35:21;;;;;;;13.48;7.40;;;19.00;99.90;;;;;;5067940;28;20468;-86
2022/10/18 12:38:18;;;;;;;9.80;6.22;;;19.00;99.90;;;;;;5086176;28;20059;-86
2022/10/18 12:40:47;;;;;;;11.27;6.30;;;19.10;99.90;;;;;;5086508;28;20051;-87
2022/10/18 12:43:23;;;;;;;14.75;6.38;;;19.20;99.90;;;;;;5067150;28;20383;-86
2022/10/18 12:45:54;;;;;;;14.15;6.43;;;19.30;99.90;;;;;;5084054;28;20068;-86
2022/10/18 12:48:34;;;;;;;8.00;6.05;;;19.40;99.90;;;;;;5085062;28;20082;-86
2022/10/18 12:51:22;;;;;;;8.65;5.03;;;19.40;99.90;;;;;;5086125;28;20059;-86
2022/10/18 12:54:00;;;;;;;17.48;7.30;;;19.40;99.90;;;;;;5084692;28;20032;-86
2022/10/18 12:56:29;;;;;;;11.05;5.80;;;19.30;99.90;;;;;;5064696;28;20029;-86
2022/10/18 12:59:13;;;;;;;11.05;5.03;;;19.30;99.90;;;;;;5066107;28;20024;-86
2022/10/18 13:01:52;;;;;;;8.52;4.78;;;19.10;99.90;;;;;;5081605;28;20059;-87
2022/10/18 13:04:26;;;;;;;12.07;6.78;;;19.10;99.90;;;;;;5070853;28;20032;-86
2022/10/18 13:07:04;;;;;;;8.57;5.05;;;19.00;99.90;;;;;;5086013;28;20042;-86
2022/10/18 13:09:35;;;;;;;10.27;6.15;;;18.80;99.90;;;;;;5084853;28;20024;-86
2022/10/18 13:12:11;;;;;;;7.97;5.13;;;18.70;99.90;;;;;;5085809;28;20497;-86
2022/10/18 13:15:17;;;;;;;9.93;4.43;;;18.70;99.90;;;;;;5060329;28;20040;-86
2022/10/18 13:17:43;;;;;;;7.95;5.32;;;;;;;;;;5065902;28;20025;-86
2022/10/18 13:20:21;;;;;;;12.85;5.57;;;18.60;99.90;;;;;;5065846;28;20017;-86
2022/10/18 13:23:25;;;;;;;7.85;4.82;;;18.70;99.90;;;;;;5065928;28;20036;-86
2022/10/18 13:26:12;;;;;;;6.32;4.25;;;18.80;99.90;;;;;;5052166;28;20091;-87
2022/10/18 13:28:38;;;;;;;7.47;4.90;;;;;;;;;;5065677;28;20554;-86
2022/10/18 13:31:27;;;;;;;9.00;4.80;;;19.00;99.90;;;;;;5047992;28;20039;-87
2022/10/18 13:33:53;;;;;;;9.40;4.15;;;;;;;;;;5047862;28;20048;-86